LSZB Airport Information

Runway Information
Runway 14 Length 4954 ft width 98 ft
Elevation 1668 ft Threshold 656 ft Heading 140
Runway 32 Length 4954 ft Width 98 ft
Elevation 1674 ft Threshold 360 ft Heading 320
Runway 14L Length 2133 ft width 98 ft
Elevation 0 ft Threshold 0 ft Heading 140
Runway 32R Length 2133 ft Width 98 ft
Elevation 0 ft Threshold 0 ft Heading 320
Runway 14R Length 2125 ft width 98 ft
Elevation 0 ft Threshold 0 ft Heading 140
Runway 32L Length 2125 ft Width 98 ft
Elevation 0 ft Threshold 0 ft Heading 320
Airport Frequencies
Type A/D Name APP/DEP Frequency 127.325 MHZ
Type ATIS Name ATIS Frequency 125.125 MHZ
Type MISC Name GLIDER Frequency 123.4 MHZ
Type OPS Name ALPAR Frequency 135.75 MHZ
Type TWR Name TWR Frequency 121.025 MHZ
Airport Navaids
Type NDB Name Bern Frequency 335 KHZ
Type NDB Name Muri Frequency 312 KHZ
Type NDB Name Schupberg Frequency 357 KHZ
Airport Weather Information & NOTAM
ADDS - METARS form results

(0318 UTC 13 December 2019)
Data provider http://aviationweather.gov/metar/data/
 
METAR text: LSZB 130250Z AUTO 09005KT 060V130 9999 BKN041 SCT046 M00/M01 Q0988
Conditions at: LSZB (BERN/BELP , CH) observed 0250 UTC 13 December 2019
Temperature: 0.0°C (32°F)
Dewpoint: -1.0°C (30°F) [RH = 93%]
Pressure (altimeter): 29.17 inches Hg (988.0 mb)
Winds: from the E (90 degrees) at 6 MPH (5 knots; 2.6 m/s)
Visibility: 6 or more miles (10+ km)
Ceiling: 4100 feet AGL
Clouds: broken clouds at 4100 feet AGL
scattered clouds at 4600 feet AGL
Weather: no significant weather observed at this time

METAR text: LSZB 130220Z AUTO 11005KT 080V150 9999 FEW004 SCT024 OVC041 M00/M01 Q0989 RESN
Conditions at: LSZB (BERN/BELP , CH) observed 0220 UTC 13 December 2019
Temperature: 0.0°C (32°F)
Dewpoint: -1.0°C (30°F) [RH = 93%]
Pressure (altimeter): 29.20 inches Hg (989.0 mb)
Winds: from the ESE (110 degrees) at 6 MPH (5 knots; 2.6 m/s)
Visibility: 6 or more miles (10+ km)
Ceiling: 4100 feet AGL
Clouds: few clouds at 400 feet AGL
scattered clouds at 2400 feet AGL
overcast cloud deck at 4100 feet AGL
Weather: no significant weather observed at this time